Time;durP1;ratioP1;P1;durP2;ratioP2;P2;SDS_P1;SDS_P2;PMS_P1;PMS_P2;Temp;Humidity;BMP_temperature;BMP_pressure;BME280_temperature;BME280_humidity;BME280_pressure;Samples;Min_cycle;Max_cycle;Signal;HPM_P1;HPM_P2
2023/11/28 00:00:48;;;;;;;8.50;5.40;;;3.90;99.90;;;;;;5074276;28;20699;-70
2023/11/28 00:03:14;;;;;;;9.40;6.20;;;3.80;99.90;;;;;;5056457;28;20660;-70
2023/11/28 00:05:40;;;;;;;12.63;7.40;;;3.90;99.90;;;;;;5074403;28;20401;-70
2023/11/28 00:08:06;;;;;;;8.00;5.40;;;3.80;99.90;;;;;;5074069;28;20416;-70
2023/11/28 00:10:31;;;;;;;10.13;6.40;;;3.80;99.90;;;;;;5074158;28;20425;-70
2023/11/28 00:12:57;;;;;;;9.17;6.17;;;3.80;99.90;;;;;;5074116;28;20177;-70
2023/11/28 00:15:22;;;;;;;9.13;7.07;;;3.70;99.90;;;;;;5074138;28;20170;-69
2023/11/28 00:17:48;;;;;;;8.37;6.00;;;3.60;99.90;;;;;;5073657;28;20201;-70
2023/11/28 00:20:13;;;;;;;8.90;6.33;;;3.60;99.90;;;;;;5073993;28;20588;-70
2023/11/28 00:22:39;;;;;;;7.07;5.90;;;3.50;99.90;;;;;;5074049;28;20233;-70
2023/11/28 00:25:05;;;;;;;8.83;6.00;;;3.50;99.90;;;;;;5073951;28;20683;-70
2023/11/28 00:27:31;;;;;;;7.50;4.67;;;3.40;99.90;;;;;;5073864;28;20196;-70
2023/11/28 00:29:57;;;;;;;7.13;4.63;;;3.40;99.90;;;;;;5073734;28;20424;-70
2023/11/28 00:32:22;;;;;;;7.90;5.03;;;3.40;99.90;;;;;;5073827;28;20934;-70
2023/11/28 00:34:48;;;;;;;5.53;4.60;;;3.30;99.90;;;;;;5073837;28;20590;-70
2023/11/28 00:37:13;;;;;;;7.40;4.60;;;3.30;99.90;;;;;;5073520;28;20194;-70
2023/11/28 00:39:40;;;;;;;6.27;4.20;;;3.30;99.90;;;;;;5073707;28;20186;-70
2023/11/28 00:42:05;;;;;;;8.47;4.63;;;3.30;99.90;;;;;;5073605;28;20162;-70
2023/11/28 00:44:31;;;;;;;7.50;4.83;;;3.30;99.90;;;;;;5073654;28;20401;-69
2023/11/28 00:46:57;;;;;;;5.77;3.77;;;3.30;99.90;;;;;;5073427;28;20170;-69
2023/11/28 00:49:23;;;;;;;5.40;4.03;;;3.20;99.90;;;;;;5073442;28;20424;-70
2023/11/28 00:51:48;;;;;;;5.53;4.10;;;3.30;99.90;;;;;;5073311;28;20431;-70
2023/11/28 00:54:14;;;;;;;6.57;4.20;;;3.20;99.90;;;;;;5073441;28;20796;-70
2023/11/28 00:56:40;;;;;;;5.67;3.60;;;3.20;99.90;;;;;;5073154;28;20195;-70
2023/11/28 00:59:05;;;;;;;5.03;3.70;;;3.20;99.90;;;;;;5072337;28;20435;-69
2023/11/28 01:01:31;;;;;;;3.77;3.30;;;3.20;99.90;;;;;;5073253;28;20257;-70
2023/11/28 01:03:56;;;;;;;4.03;3.47;;;3.20;99.90;;;;;;5073300;28;20170;-70
2023/11/28 01:06:22;;;;;;;6.20;3.90;;;3.20;99.90;;;;;;5073126;28;20170;-70
2023/11/28 01:08:47;;;;;;;4.63;4.07;;;3.20;99.90;;;;;;5073193;28;20166;-70
2023/11/28 01:11:14;;;;;;;3.97;3.47;;;3.20;99.90;;;;;;5073021;28;20252;-69
2023/11/28 01:13:40;;;;;;;4.60;3.63;;;3.20;99.90;;;;;;5073083;28;20174;-68
2023/11/28 01:16:08;;;;;;;4.50;3.97;;;3.20;99.90;;;;;;5072583;28;20895;-68
2023/11/28 01:18:33;;;;;;;5.00;4.10;;;3.10;99.90;;;;;;5073219;28;20154;-69
2023/11/28 01:20:59;;;;;;;4.70;3.50;;;3.10;99.90;;;;;;5072772;28;20988;-69
2023/11/28 01:23:24;;;;;;;4.97;4.10;;;3.00;99.90;;;;;;5054898;28;20171;-69
2023/11/28 01:25:50;;;;;;;4.67;3.70;;;3.00;99.90;;;;;;5072641;28;20165;-69
2023/11/28 01:28:16;;;;;;;3.93;3.53;;;3.00;99.90;;;;;;5072311;28;20546;-69
2023/11/28 01:30:41;;;;;;;4.70;4.30;;;3.00;99.90;;;;;;5071883;28;20216;-69
2023/11/28 01:33:07;;;;;;;4.90;4.20;;;3.00;99.90;;;;;;5072600;28;20166;-69
2023/11/28 01:35:32;;;;;;;4.70;3.93;;;2.90;99.90;;;;;;5054739;28;20175;-69
2023/11/28 01:37:58;;;;;;;5.73;4.50;;;2.90;99.90;;;;;;5072353;28;20230;-69
2023/11/28 01:40:23;;;;;;;6.10;4.47;;;2.90;99.90;;;;;;5072161;28;20649;-69
2023/11/28 01:42:49;;;;;;;8.40;4.00;;;2.80;99.90;;;;;;5071978;28;20559;-69
2023/11/28 01:45:14;;;;;;;6.20;4.67;;;2.80;99.90;;;;;;5071907;28;20162;-69
2023/11/28 01:47:41;;;;;;;4.90;4.00;;;2.80;99.90;;;;;;5054310;28;20174;-69
2023/11/28 01:50:07;;;;;;;6.10;4.87;;;2.80;99.90;;;;;;5072289;28;20217;-69
2023/11/28 01:52:33;;;;;;;4.60;3.87;;;2.80;99.90;;;;;;5072226;28;20429;-69
2023/11/28 01:55:02;;;;;;;6.27;4.97;;;2.70;99.90;;;;;;5072340;28;20408;-69
2023/11/28 01:57:29;;;;;;;5.23;4.47;;;2.80;99.90;;;;;;5053731;28;20304;-69
2023/11/28 01:59:55;;;;;;;5.57;3.90;;;2.80;99.90;;;;;;5072091;28;20866;-69
2023/11/28 02:02:20;;;;;;;5.03;4.30;;;2.70;99.90;;;;;;5072110;28;20496;-69
2023/11/28 02:04:48;;;;;;;5.97;3.40;;;2.80;99.90;;;;;;5072178;28;20545;-69
2023/11/28 02:07:14;;;;;;;4.97;4.20;;;2.80;99.90;;;;;;5071815;28;20253;-69
2023/11/28 02:09:40;;;;;;;5.93;3.77;;;2.80;99.90;;;;;;5054143;28;20441;-69
2023/11/28 02:12:06;;;;;;;5.33;4.10;;;2.80;99.90;;;;;;5071845;28;20436;-69
2023/11/28 02:14:32;;;;;;;3.87;3.27;;;2.80;99.90;;;;;;5071914;28;20428;-69
2023/11/28 02:16:58;;;;;;;4.87;3.87;;;2.80;99.90;;;;;;5071807;28;20452;-69
2023/11/28 02:19:23;;;;;;;8.40;4.50;;;2.80;99.90;;;;;;5072003;28;20632;-69
2023/11/28 02:21:49;;;;;;;4.43;3.77;;;2.80;99.90;;;;;;5072050;28;20617;-69
2023/11/28 02:24:15;;;;;;;4.27;3.20;;;2.80;99.90;;;;;;5071915;28;20167;-69
2023/11/28 02:26:41;;;;;;;3.63;3.33;;;2.80;99.90;;;;;;5071812;28;20405;-69
2023/11/28 02:29:06;;;;;;;3.70;3.30;;;2.80;99.90;;;;;;5071689;28;20400;-69
2023/11/28 02:31:32;;;;;;;3.60;3.20;;;2.80;99.90;;;;;;5071802;28;20193;-69
2023/11/28 02:33:58;;;;;;;3.97;3.33;;;2.90;99.90;;;;;;5071860;28;20181;-69
2023/11/28 02:36:23;;;;;;;3.50;3.03;;;2.90;99.90;;;;;;5071537;28;20193;-69
2023/11/28 02:38:49;;;;;;;4.10;3.70;;;2.90;99.90;;;;;;5071814;28;20397;-69
2023/11/28 02:41:15;;;;;;;5.47;3.60;;;2.90;99.90;;;;;;5071641;28;20190;-69
2023/11/28 02:43:40;;;;;;;3.60;3.27;;;2.90;99.90;;;;;;5071754;28;20162;-69
2023/11/28 02:46:06;;;;;;;4.20;3.27;;;2.90;99.90;;;;;;5071572;28;20241;-69
2023/11/28 02:48:31;;;;;;;3.10;2.87;;;3.00;99.90;;;;;;5071741;28;20702;-69
2023/11/28 02:50:57;;;;;;;3.60;2.70;;;2.90;99.90;;;;;;5071585;28;20311;-68
2023/11/28 02:53:22;;;;;;;3.17;2.87;;;2.90;99.90;;;;;;5071498;28;20232;-68
2023/11/28 02:55:48;;;;;;;3.33;3.03;;;2.90;99.90;;;;;;5071585;28;20643;-69
2023/11/28 02:58:13;;;;;;;2.80;2.60;;;2.90;99.90;;;;;;5071395;28;20194;-68
2023/11/28 03:00:39;;;;;;;3.27;2.60;;;3.00;99.90;;;;;;5071510;28;20182;-68
2023/11/28 03:03:05;;;;;;;3.73;3.30;;;3.00;99.90;;;;;;5071503;28;20175;-69
2023/11/28 03:05:31;;;;;;;3.50;3.20;;;3.00;99.90;;;;;;5071570;28;20180;-69
2023/11/28 03:07:56;;;;;;;3.47;2.90;;;3.00;99.90;;;;;;5071237;28;20249;-69
2023/11/28 03:10:22;;;;;;;2.97;2.77;;;3.00;99.90;;;;;;5071362;28;20931;-69
2023/11/28 03:12:48;;;;;;;3.03;2.70;;;3.00;99.90;;;;;;5071440;28;20166;-69
2023/11/28 03:15:13;;;;;;;3.77;3.40;;;3.00;99.90;;;;;;5071429;28;20166;-69
2023/11/28 03:17:39;;;;;;;3.50;3.20;;;3.00;99.90;;;;;;5071125;28;20194;-69
2023/11/28 03:20:05;;;;;;;4.40;3.33;;;3.00;99.90;;;;;;5071310;28;20668;-69
2023/11/28 03:22:31;;;;;;;5.73;3.90;;;2.90;99.90;;;;;;5071984;28;20702;-69
2023/11/28 03:25:06;;;;;;;4.03;3.50;;;2.90;99.90;;;;;;5074908;28;20408;-69
2023/11/28 03:27:31;;;;;;;5.87;3.23;;;2.90;99.90;;;;;;5074955;28;20173;-69
2023/11/28 03:29:57;;;;;;;4.13;3.80;;;2.90;99.90;;;;;;5074972;28;21000;-69
2023/11/28 03:32:22;;;;;;;3.00;2.80;;;2.80;99.90;;;;;;5074793;28;20171;-69
2023/11/28 03:34:48;;;;;;;3.50;3.10;;;2.80;99.90;;;;;;5057047;28;20197;-69
2023/11/28 03:37:13;;;;;;;6.10;3.20;;;2.80;99.90;;;;;;5074825;28;20532;-69
2023/11/28 03:39:42;;;;;;;4.30;3.60;;;2.80;99.90;;;;;;5074757;28;20186;-69
2023/11/28 03:42:07;;;;;;;3.60;3.30;;;2.70;99.90;;;;;;5074715;28;20283;-69
2023/11/28 03:44:33;;;;;;;3.83;3.33;;;2.70;99.90;;;;;;5074759;28;20397;-69
2023/11/28 03:46:58;;;;;;;4.27;3.87;;;2.70;99.90;;;;;;5074531;28;20701;-69
2023/11/28 03:49:24;;;;;;;3.80;3.27;;;2.70;99.90;;;;;;5074506;28;20654;-69
2023/11/28 03:51:49;;;;;;;4.50;3.80;;;2.80;99.90;;;;;;5074480;28;20560;-69
2023/11/28 03:54:15;;;;;;;4.43;4.03;;;2.80;99.90;;;;;;5056549;28;20182;-69
2023/11/28 03:56:44;;;;;;;4.87;4.47;;;2.80;99.90;;;;;;5074305;28;20201;-69
2023/11/28 03:59:09;;;;;;;5.13;4.70;;;2.90;99.90;;;;;;5074474;28;20534;-69
2023/11/28 04:01:35;;;;;;;6.00;4.90;;;2.80;99.90;;;;;;5074365;28;20480;-69
2023/11/28 04:04:01;;;;;;;4.73;4.17;;;2.90;99.90;;;;;;5074440;28;20162;-69
2023/11/28 04:06:26;;;;;;;5.27;4.53;;;2.90;99.90;;;;;;5074226;28;20450;-69
2023/11/28 04:08:53;;;;;;;5.60;4.47;;;2.90;99.90;;;;;;5074314;28;20170;-69
2023/11/28 04:11:19;;;;;;;5.10;4.60;;;2.90;99.90;;;;;;5074067;28;20189;-69
2023/11/28 04:13:44;;;;;;;8.00;5.00;;;2.90;99.90;;;;;;5074255;28;20483;-69
2023/11/28 04:16:18;;;;;;;6.67;5.93;;;2.90;99.90;;;;;;5073667;28;20439;-69
2023/11/28 04:18:50;;;;;;;7.47;5.97;;;2.90;99.90;;;;;;5074270;28;20179;-69
2023/11/28 04:21:19;;;;;;;7.93;6.50;;;2.90;99.90;;;;;;5074047;28;20424;-69
2023/11/28 04:23:44;;;;;;;7.57;5.57;;;2.90;99.90;;;;;;5074042;28;20413;-68
2023/11/28 04:26:10;;;;;;;8.63;6.33;;;2.90;99.90;;;;;;5073879;28;20397;-68
2023/11/28 04:28:36;;;;;;;7.73;6.93;;;2.90;99.90;;;;;;5056060;28;20561;-69
2023/11/28 04:31:01;;;;;;;6.53;5.73;;;2.80;99.90;;;;;;5073816;28;20197;-69
2023/11/28 04:33:27;;;;;;;8.47;6.97;;;2.90;99.90;;;;;;5073347;28;20253;-69
2023/11/28 04:35:53;;;;;;;7.53;6.73;;;2.90;99.90;;;;;;5072982;28;20215;-69
2023/11/28 04:38:18;;;;;;;7.97;6.57;;;2.80;99.90;;;;;;5073761;28;20194;-69
2023/11/28 04:40:44;;;;;;;8.20;7.20;;;2.90;99.90;;;;;;5073569;28;20742;-69
2023/11/28 04:43:09;;;;;;;8.37;7.57;;;2.90;99.90;;;;;;5073493;28;20508;-68
2023/11/28 04:45:35;;;;;;;9.70;8.23;;;3.00;99.90;;;;;;5073589;28;20219;-69
2023/11/28 04:48:01;;;;;;;8.33;7.33;;;3.00;99.90;;;;;;5073453;28;20215;-68
2023/11/28 04:50:27;;;;;;;8.77;6.90;;;3.00;99.90;;;;;;5073474;28;20190;-68
2023/11/28 04:52:52;;;;;;;8.00;7.20;;;3.00;99.90;;;;;;5073386;28;20443;-68
2023/11/28 04:55:18;;;;;;;8.73;7.83;;;3.00;99.90;;;;;;5073473;28;20171;-69
2023/11/28 04:57:43;;;;;;;8.87;7.73;;;2.90;99.90;;;;;;5073254;28;20221;-68
2023/11/28 05:00:09;;;;;;;8.23;7.10;;;3.00;99.90;;;;;;5073250;28;20209;-68
2023/11/28 05:02:35;;;;;;;8.97;7.50;;;2.90;99.90;;;;;;5073260;28;20177;-68
2023/11/28 05:05:00;;;;;;;7.70;6.90;;;3.00;99.90;;;;;;5073248;28;20408;-68
2023/11/28 05:07:26;;;;;;;9.60;7.43;;;3.00;99.90;;;;;;5073126;28;20170;-68
2023/11/28 05:09:51;;;;;;;9.30;8.20;;;3.00;99.90;;;;;;5073103;28;20198;-69
2023/11/28 05:12:17;;;;;;;8.90;8.00;;;3.00;99.90;;;;;;5072996;28;20170;-68
2023/11/28 05:14:43;;;;;;;12.40;9.67;;;2.90;99.90;;;;;;5072941;28;20241;-68
2023/11/28 05:17:08;;;;;;;8.97;7.83;;;3.00;99.90;;;;;;5072565;28;20194;-69
2023/11/28 05:19:34;;;;;;;8.23;7.30;;;3.00;99.90;;;;;;5072710;28;20190;-68
2023/11/28 05:22:00;;;;;;;9.50;7.70;;;3.00;99.90;;;;;;5072743;28;20245;-68
2023/11/28 05:24:25;;;;;;;10.97;7.60;;;3.00;99.90;;;;;;5072947;28;20631;-68
2023/11/28 05:26:51;;;;;;;8.83;7.93;;;3.00;99.90;;;;;;5072676;28;20162;-70
2023/11/28 05:29:17;;;;;;;8.53;7.63;;;3.00;99.90;;;;;;5072731;28;20676;-68
2023/11/28 05:31:42;;;;;;;9.93;8.93;;;3.00;99.90;;;;;;5072648;28;20170;-68
2023/11/28 05:34:08;;;;;;;8.33;7.30;;;3.00;99.90;;;;;;5072669;28;20224;-68
2023/11/28 05:36:33;;;;;;;12.90;8.50;;;3.00;99.90;;;;;;5072296;28;20209;-67
2023/11/28 05:39:00;;;;;;;10.67;8.93;;;3.00;99.90;;;;;;5072260;28;20574;-68
2023/11/28 05:41:25;;;;;;;10.90;8.17;;;3.00;99.90;;;;;;5072349;28;20204;-68
2023/11/28 05:43:51;;;;;;;8.93;7.80;;;3.10;99.90;;;;;;5072343;28;20404;-68
2023/11/28 05:46:16;;;;;;;10.50;7.80;;;3.10;99.90;;;;;;5071763;28;20541;-68
2023/11/28 05:48:42;;;;;;;8.03;7.20;;;3.10;99.90;;;;;;5072431;28;20220;-68
2023/11/28 05:51:08;;;;;;;8.50;7.60;;;3.10;99.90;;;;;;5054374;28;20190;-68
2023/11/28 05:53:35;;;;;;;12.13;8.63;;;3.10;99.90;;;;;;5072175;28;20185;-68
2023/11/28 05:56:02;;;;;;;13.27;10.70;;;3.10;99.90;;;;;;5071956;28;20440;-68
2023/11/28 05:58:28;;;;;;;10.53;9.40;;;3.00;99.90;;;;;;5072057;28;20536;-68
2023/11/28 06:00:54;;;;;;;15.80;10.50;;;3.10;99.90;;;;;;5072094;28;20501;-68
2023/11/28 06:03:20;;;;;;;13.17;10.00;;;3.10;99.90;;;;;;5072195;28;20392;-68
2023/11/28 06:05:45;;;;;;;15.20;12.67;;;3.10;99.90;;;;;;5072102;28;20162;-68
2023/11/28 06:08:11;;;;;;;15.67;11.07;;;3.10;99.90;;;;;;5071981;28;20177;-68
2023/11/28 06:10:37;;;;;;;14.33;11.53;;;3.10;99.90;;;;;;5053630;28;20205;-68
2023/11/28 06:13:02;;;;;;;12.70;9.90;;;3.20;99.90;;;;;;5071867;28;20899;-68
2023/11/28 06:15:28;;;;;;;12.43;9.67;;;3.20;99.90;;;;;;5071938;28;20633;-68
2023/11/28 06:17:53;;;;;;;12.57;9.33;;;3.20;99.90;;;;;;5071665;28;20247;-68
2023/11/28 06:20:20;;;;;;;13.07;10.80;;;3.10;99.90;;;;;;5071911;28;20182;-68
2023/11/28 06:22:46;;;;;;;12.03;10.07;;;3.10;99.90;;;;;;5071924;28;20162;-68
2023/11/28 06:25:12;;;;;;;12.93;9.40;;;3.20;99.90;;;;;;5071954;28;20399;-68
2023/11/28 06:27:37;;;;;;;11.70;9.80;;;3.20;99.90;;;;;;5071674;28;20779;-68
2023/11/28 06:30:06;;;;;;;13.90;10.40;;;3.20;99.90;;;;;;5071916;28;20194;-69
2023/11/28 06:32:33;;;;;;;11.97;9.00;;;3.10;99.90;;;;;;5071718;28;20172;-68
2023/11/28 06:34:58;;;;;;;11.13;8.90;;;3.10;99.90;;;;;;5053772;28;20471;-68
2023/11/28 06:37:24;;;;;;;11.20;8.43;;;3.10;99.90;;;;;;5071598;28;20484;-68
2023/11/28 06:39:49;;;;;;;9.60;7.40;;;3.10;99.90;;;;;;5071781;28;20356;-68
2023/11/28 06:42:16;;;;;;;10.20;8.67;;;3.00;99.90;;;;;;5071803;28;20245;-68
2023/11/28 06:44:41;;;;;;;10.30;8.30;;;3.00;99.90;;;;;;5072070;28;20162;-68
2023/11/28 06:47:07;;;;;;;10.53;7.23;;;3.00;99.90;;;;;;5053353;28;20461;-67
2023/11/28 06:49:33;;;;;;;10.17;8.17;;;3.00;99.90;;;;;;5071597;28;20193;-68
2023/11/28 06:52:00;;;;;;;10.13;9.10;;;3.10;99.90;;;;;;5071456;28;20766;-67
2023/11/28 06:54:26;;;;;;;10.30;8.43;;;3.10;99.90;;;;;;5071855;28;20649;-67
2023/11/28 06:56:51;;;;;;;11.23;9.90;;;3.10;99.90;;;;;;5071419;28;20451;-67
2023/11/28 06:59:17;;;;;;;15.13;10.53;;;3.10;99.90;;;;;;5057369;28;20172;-67
2023/11/28 07:01:42;;;;;;;12.87;10.37;;;3.10;99.90;;;;;;5075534;28;20169;-67
2023/11/28 07:04:08;;;;;;;13.70;10.13;;;3.10;99.90;;;;;;5075605;28;20166;-67
2023/11/28 07:06:33;;;;;;;11.60;9.33;;;3.10;99.90;;;;;;5075367;28;20166;-67
2023/11/28 07:08:59;;;;;;;10.70;9.67;;;3.10;99.90;;;;;;5075268;28;20241;-67
2023/11/28 07:11:24;;;;;;;12.07;8.50;;;3.10;99.90;;;;;;5075344;28;20203;-67
2023/11/28 07:13:50;;;;;;;13.30;10.97;;;3.20;99.90;;;;;;5075337;28;20197;-67
2023/11/28 07:16:17;;;;;;;12.90;10.37;;;3.10;99.90;;;;;;5075079;28;20194;-67
2023/11/28 07:18:43;;;;;;;12.73;9.30;;;3.20;99.90;;;;;;5075352;28;20428;-68
2023/11/28 07:21:08;;;;;;;11.20;8.20;;;3.20;99.90;;;;;;5074700;28;20459;-67
2023/11/28 07:23:35;;;;;;;14.30;10.17;;;3.30;99.90;;;;;;5074918;28;20270;-67
2023/11/28 07:26:00;;;;;;;12.53;10.03;;;3.20;99.90;;;;;;5074972;28;20237;-67
2023/11/28 07:28:26;;;;;;;14.40;9.80;;;3.30;99.90;;;;;;5075097;28;20428;-67
2023/11/28 07:30:52;;;;;;;12.20;10.03;;;3.30;99.90;;;;;;5074859;28;20222;-68
2023/11/28 07:33:21;;;;;;;13.80;10.10;;;3.30;99.90;;;;;;5074997;28;20166;-67
2023/11/28 07:35:46;;;;;;;11.90;9.57;;;3.30;99.90;;;;;;5074954;28;20177;-67
2023/11/28 07:38:11;;;;;;;14.80;9.83;;;3.30;99.90;;;;;;5074709;28;20947;-68
2023/11/28 07:40:39;;;;;;;9.97;8.43;;;3.30;99.90;;;;;;5074652;28;20190;-68
2023/11/28 07:43:05;;;;;;;10.13;8.83;;;3.20;99.90;;;;;;5074266;28;20166;-68
2023/11/28 07:45:30;;;;;;;10.03;7.57;;;3.10;99.90;;;;;;5074685;28;20522;-68
2023/11/28 07:47:57;;;;;;;9.87;7.47;;;3.10;99.90;;;;;;5074575;28;20955;-68
2023/11/28 07:50:23;;;;;;;9.63;8.33;;;3.00;99.90;;;;;;5074829;28;20695;-68
2023/11/28 07:52:49;;;;;;;11.87;7.30;;;3.00;99.90;;;;;;5074512;28;20900;-68
2023/11/28 07:55:15;;;;;;;9.33;7.27;;;3.00;99.90;;;;;;5074624;28;20415;-68
2023/11/28 07:57:40;;;;;;;7.47;6.70;;;3.00;99.90;;;;;;5074256;28;20190;-68
2023/11/28 08:00:07;;;;;;;9.13;6.73;;;2.90;99.90;;;;;;5074497;28;20235;-68
2023/11/28 08:02:34;;;;;;;8.13;6.57;;;2.90;99.90;;;;;;5074393;28;20162;-68
2023/11/28 08:05:01;;;;;;;9.30;7.30;;;2.90;99.90;;;;;;5074509;28;20407;-68
2023/11/28 08:07:26;;;;;;;7.43;6.20;;;2.90;99.90;;;;;;5074271;28;20495;-68
2023/11/28 08:09:52;;;;;;;8.10;5.70;;;3.00;99.90;;;;;;5074016;28;20511;-68
2023/11/28 08:12:18;;;;;;;8.23;6.43;;;3.00;99.90;;;;;;5074197;28;20583;-68
2023/11/28 08:14:43;;;;;;;10.27;7.57;;;3.10;99.90;;;;;;5074264;28;20162;-68
2023/11/28 08:17:09;;;;;;;10.10;5.97;;;3.10;99.90;;;;;;5073902;28;20440;-68
2023/11/28 08:19:34;;;;;;;7.13;5.73;;;3.10;99.90;;;;;;5074130;28;20723;-67
2023/11/28 08:22:00;;;;;;;5.63;5.10;;;3.10;99.90;;;;;;5074066;28;20162;-67
2023/11/28 08:24:25;;;;;;;7.10;5.93;;;3.10;99.90;;;;;;5074130;28;20189;-67
2023/11/28 08:26:51;;;;;;;5.23;4.83;;;3.10;99.90;;;;;;5073894;28;20173;-67
2023/11/28 08:29:16;;;;;;;5.47;4.97;;;3.10;99.90;;;;;;5073960;28;20249;-68
2023/11/28 08:31:42;;;;;;;6.27;5.30;;;3.10;99.90;;;;;;5073896;28;20795;-68
2023/11/28 08:34:09;;;;;;;4.67;4.20;;;3.20;99.90;;;;;;5073960;28;20166;-67
2023/11/28 08:36:34;;;;;;;8.30;4.87;;;3.20;99.90;;;;;;5073955;28;20649;-67
2023/11/28 08:39:00;;;;;;;5.03;4.60;;;3.20;99.90;;;;;;5056094;28;20416;-68
2023/11/28 08:41:26;;;;;;;5.53;5.00;;;3.20;99.90;;;;;;5073745;28;20257;-67
2023/11/28 08:43:51;;;;;;;4.30;3.90;;;3.20;99.90;;;;;;5073384;28;20164;-67
2023/11/28 08:46:17;;;;;;;4.53;3.70;;;3.30;99.90;;;;;;5073494;28;20844;-67
2023/11/28 08:48:43;;;;;;;4.70;4.30;;;3.20;99.90;;;;;;5073578;28;20162;-67
2023/11/28 08:51:09;;;;;;;5.97;4.50;;;3.30;99.90;;;;;;5073430;28;20428;-67
2023/11/28 08:53:34;;;;;;;5.67;5.00;;;3.30;99.90;;;;;;5073402;28;20193;-68
2023/11/28 08:56:00;;;;;;;5.40;4.53;;;3.30;99.90;;;;;;5073211;28;20170;-67
2023/11/28 08:58:26;;;;;;;4.00;3.70;;;3.40;99.90;;;;;;5073237;28;20208;-68
2023/11/28 09:00:53;;;;;;;5.57;4.17;;;3.40;99.90;;;;;;5073296;28;20251;-68
2023/11/28 09:03:20;;;;;;;4.17;3.43;;;3.40;99.90;;;;;;5073273;28;20423;-68
2023/11/28 09:05:46;;;;;;;19.63;11.53;;;3.40;99.90;;;;;;5073251;28;20404;-68
2023/11/28 09:08:12;;;;;;;4.73;4.30;;;3.40;99.90;;;;;;5073080;28;20411;-68
2023/11/28 09:10:37;;;;;;;4.57;4.07;;;3.40;99.90;;;;;;5073015;28;20424;-68
2023/11/28 09:13:03;;;;;;;5.00;3.93;;;3.40;99.90;;;;;;5072790;28;20650;-68
2023/11/28 09:15:29;;;;;;;4.40;3.50;;;3.40;99.90;;;;;;5073053;28;20173;-68
2023/11/28 09:17:54;;;;;;;3.50;2.60;;;3.40;99.90;;;;;;5072689;28;20279;-68
2023/11/28 09:20:20;;;;;;;4.03;3.20;;;3.40;99.90;;;;;;5072324;28;20278;-68
2023/11/28 09:22:47;;;;;;;4.97;3.60;;;3.50;99.90;;;;;;5072912;28;20529;-67
2023/11/28 09:25:13;;;;;;;3.50;2.83;;;3.50;99.90;;;;;;5072567;28;20253;-68
2023/11/28 09:27:39;;;;;;;3.10;2.27;;;3.50;99.90;;;;;;5072684;28;20439;-67
2023/11/28 09:30:05;;;;;;;3.00;2.77;;;3.50;99.90;;;;;;5072707;28;20923;-67
2023/11/28 09:32:31;;;;;;;3.17;2.87;;;3.70;99.90;;;;;;5072546;28;20695;-68
2023/11/28 09:34:56;;;;;;;2.20;2.00;;;3.90;99.90;;;;;;5072461;28;20416;-68
2023/11/28 09:37:22;;;;;;;2.90;2.57;;;4.10;99.90;;;;;;5072410;28;20198;-68
2023/11/28 09:39:48;;;;;;;3.77;2.90;;;4.20;99.90;;;;;;5072503;28;20178;-68
2023/11/28 09:42:15;;;;;;;3.63;3.00;;;4.30;99.90;;;;;;5072581;28;20170;-68
2023/11/28 09:44:45;;;;;;;6.80;3.00;;;4.30;99.90;;;;;;5072449;28;20166;-68
2023/11/28 09:47:11;;;;;;;3.83;2.77;;;4.40;99.90;;;;;;5072305;28;20891;-68
2023/11/28 09:49:41;;;;;;;3.40;3.10;;;4.50;99.90;;;;;;5072341;28;20919;-68
2023/11/28 09:52:08;;;;;;;3.30;2.87;;;4.70;99.90;;;;;;5072467;28;20935;-68
2023/11/28 09:54:37;;;;;;;2.53;2.30;;;4.90;99.90;;;;;;5072406;28;20900;-68
2023/11/28 09:57:04;;;;;;;3.17;2.60;;;5.10;99.90;;;;;;5072089;28;20451;-68
2023/11/28 09:59:30;;;;;;;3.20;2.87;;;5.20;99.90;;;;;;5072226;28;20489;-68
2023/11/28 10:01:57;;;;;;;3.50;3.20;;;5.40;99.90;;;;;;5072226;28;20499;-68
2023/11/28 10:04:23;;;;;;;3.60;3.10;;;5.50;99.90;;;;;;5072156;28;20712;-68
2023/11/28 10:06:50;;;;;;;2.37;2.17;;;5.60;99.90;;;;;;5071909;28;20400;-68
2023/11/28 10:09:16;;;;;;;4.87;3.20;;;5.60;99.90;;;;;;5071978;28;20400;-68
2023/11/28 10:11:43;;;;;;;10.70;3.30;;;5.60;99.90;;;;;;5071992;28;20775;-67
2023/11/28 10:14:09;;;;;;;4.90;2.70;;;5.60;99.90;;;;;;5072041;28;20889;-68
2023/11/28 10:16:46;;;;;;;2.90;2.70;;;5.60;99.90;;;;;;5071802;28;20487;-68
2023/11/28 10:19:12;;;;;;;3.30;2.97;;;5.60;99.90;;;;;;5071971;28;20839;-67
2023/11/28 10:21:39;;;;;;;2.33;2.13;;;5.60;99.90;;;;;;5071886;28;20396;-68
2023/11/28 10:24:07;;;;;;;3.60;2.30;;;5.70;99.90;;;;;;5071911;28;20814;-68
2023/11/28 10:26:32;;;;;;;3.57;2.43;;;5.80;99.90;;;;;;5071841;28;20867;-68
2023/11/28 10:28:58;;;;;;;2.33;2.13;;;5.90;99.90;;;;;;5071907;28;20425;-68
2023/11/28 10:31:23;;;;;;;3.90;2.80;;;5.90;99.90;;;;;;5071739;28;20244;-68
2023/11/28 10:33:51;;;;;;;2.97;2.77;;;5.90;99.90;;;;;;5071844;28;20166;-68
2023/11/28 10:36:17;;;;;;;2.57;2.13;;;5.90;99.90;;;;;;5071658;28;20167;-68
2023/11/28 10:38:42;;;;;;;3.97;2.60;;;5.90;99.90;;;;;;5071813;28;20412;-68
2023/11/28 10:41:08;;;;;;;2.10;1.90;;;6.00;99.90;;;;;;5071793;28;20194;-68
2023/11/28 10:43:34;;;;;;;4.80;1.87;;;5.90;99.90;;;;;;5071750;28;20216;-68
2023/11/28 10:46:04;;;;;;;2.17;1.97;;;5.90;99.90;;;;;;5071631;28;20166;-68
2023/11/28 10:48:30;;;;;;;2.70;1.90;;;5.80;99.90;;;;;;5071760;28;20404;-68
2023/11/28 10:50:56;;;;;;;3.03;2.67;;;5.80;99.90;;;;;;5071541;28;20794;-68
2023/11/28 10:53:25;;;;;;;2.30;2.10;;;5.80;99.90;;;;;;5071485;28;20190;-68
2023/11/28 10:55:51;;;;;;;2.20;1.77;;;5.80;99.90;;;;;;5071712;28;20499;-68
2023/11/28 10:58:19;;;;;;;2.00;1.80;;;5.70;99.90;;;;;;5053518;28;20471;-68
2023/11/28 11:00:46;;;;;;;1.87;1.70;;;5.70;99.90;;;;;;5071661;28;20429;-68
2023/11/28 11:03:15;;;;;;;1.63;1.53;;;5.80;99.90;;;;;;5053366;28;20912;-68
2023/11/28 11:05:44;;;;;;;4.20;1.83;;;6.10;99.90;;;;;;5071492;28;20439;-70
2023/11/28 11:08:10;;;;;;;2.00;1.80;;;8.10;99.90;;;;;;5071265;28;20404;-69
2023/11/28 11:10:37;;;;;;;3.03;1.87;;;11.80;99.90;;;;;;5071615;28;21162;-69
2023/11/28 11:13:08;;;;;;;1.70;1.50;;;13.60;99.90;;;;;;5053329;28;20790;-69
2023/11/28 11:16:11;;;;;;;1.20;1.10;;;13.60;93.60;;;;;;5071523;28;20773;-69
2023/11/28 11:18:41;;;;;;;3.47;1.67;;;12.90;90.50;;;;;;4988839;28;20472;-69
2023/11/28 11:21:13;;;;;;;1.70;1.60;;;12.10;80.00;;;;;;5071109;28;20413;-69
2023/11/28 11:23:44;;;;;;;1.93;1.63;;;11.20;75.20;;;;;;5071133;28;20411;-69
2023/11/28 11:26:10;;;;;;;2.03;1.80;;;10.10;73.60;;;;;;5071085;28;20485;-69
2023/11/28 11:28:36;;;;;;;3.23;2.13;;;9.30;80.60;;;;;;5071345;28;20466;-69
2023/11/28 11:31:10;;;;;;;4.00;2.73;;;8.40;88.00;;;;;;5071170;28;20185;-68
2023/11/28 11:33:36;;;;;;;2.20;1.93;;;7.90;94.10;;;;;;5071307;28;20426;-69
2023/11/28 11:36:13;;;;;;;2.03;1.60;;;7.50;98.80;;;;;;5070692;28;20458;-69
2023/11/28 11:38:39;;;;;;;2.00;1.77;;;6.90;99.90;;;;;;5071164;28;20204;-68
2023/11/28 11:41:08;;;;;;;2.47;1.70;;;6.50;99.90;;;;;;5053188;28;20435;-68
2023/11/28 11:43:36;;;;;;;4.83;2.00;;;6.30;99.90;;;;;;5072019;28;20458;-68
2023/11/28 11:46:13;;;;;;;4.47;2.10;;;6.10;99.90;;;;;;5074723;28;20475;-68
2023/11/28 11:48:40;;;;;;;1.60;1.50;;;5.90;99.90;;;;;;5056975;28;20424;-68
2023/11/28 11:51:06;;;;;;;1.83;1.40;;;5.80;99.90;;;;;;5074607;28;20424;-68
2023/11/28 11:53:33;;;;;;;1.93;1.40;;;5.70;99.90;;;;;;5056708;28;20434;-68
2023/11/28 11:56:02;;;;;;;3.43;2.50;;;5.80;99.90;;;;;;5074426;28;20412;-68
2023/11/28 11:58:30;;;;;;;2.30;1.87;;;5.80;99.90;;;;;;5074596;28;20460;-69
2023/11/28 12:00:58;;;;;;;1.97;1.80;;;5.80;99.90;;;;;;5056517;28;20489;-69
2023/11/28 12:03:24;;;;;;;3.73;2.73;;;5.90;99.90;;;;;;5074479;28;20837;-69
2023/11/28 12:05:51;;;;;;;5.63;2.10;;;5.90;99.90;;;;;;5074429;28;20432;-69
2023/11/28 12:08:17;;;;;;;1.97;1.83;;;5.90;99.90;;;;;;5074278;28;20170;-69
2023/11/28 12:10:42;;;;;;;1.63;1.53;;;5.80;99.90;;;;;;5074214;28;20432;-69
2023/11/28 12:13:10;;;;;;;5.83;2.10;;;5.80;99.90;;;;;;5074215;28;20181;-69
2023/11/28 12:15:36;;;;;;;1.67;1.57;;;5.80;99.90;;;;;;5074228;28;20170;-69
2023/11/28 12:18:12;;;;;;;1.77;1.67;;;5.80;99.90;;;;;;5055702;28;20448;-69
2023/11/28 12:20:38;;;;;;;2.03;1.63;;;5.90;99.90;;;;;;5073765;28;20503;-69
2023/11/28 12:23:09;;;;;;;2.20;1.63;;;5.90;99.90;;;;;;5074118;28;20462;-69
2023/11/28 12:25:38;;;;;;;2.23;1.70;;;5.90;99.90;;;;;;5074139;28;20454;-69
2023/11/28 12:28:04;;;;;;;5.43;2.37;;;5.90;99.90;;;;;;5073847;28;20478;-69
2023/11/28 12:30:31;;;;;;;1.87;1.40;;;5.90;99.90;;;;;;5055892;28;20424;-69
2023/11/28 12:32:57;;;;;;;2.20;2.00;;;5.90;99.90;;;;;;5073983;28;20404;-68
2023/11/28 12:35:25;;;;;;;1.73;1.60;;;5.90;99.90;;;;;;5073551;28;20424;-68
2023/11/28 12:37:51;;;;;;;1.53;1.43;;;6.00;99.90;;;;;;5073558;28;20447;-68
2023/11/28 12:40:18;;;;;;;2.60;2.40;;;6.10;99.90;;;;;;5073627;28;20439;-68
2023/11/28 12:42:45;;;;;;;2.40;1.90;;;6.10;99.90;;;;;;5073678;28;20171;-68
2023/11/28 12:45:11;;;;;;;4.07;3.27;;;6.20;99.90;;;;;;5073759;28;20802;-68
2023/11/28 12:47:37;;;;;;;2.87;2.60;;;6.20;99.90;;;;;;5073500;28;20408;-68
2023/11/28 12:50:04;;;;;;;3.10;2.90;;;6.30;99.90;;;;;;5073272;28;20440;-68